Time;durP1;ratioP1;P1;durP2;ratioP2;P2;SDS_P1;SDS_P2;PMS_P1;PMS_P2;Temp;Humidity;BMP_temperature;BMP_pressure;BME280_temperature;BME280_humidity;BME280_pressure;Samples;Min_cycle;Max_cycle;Signal;HPM_P1;HPM_P2
2022/03/15 00:00:38;;;;;;;;;;;;;;;21.15;42.51;102331.03;7281208;19;152203;-53
2022/03/15 00:03:09;;;;;;;;;;;;;;;21.19;42.51;102331.31;7279904;19;151790;-52
2022/03/15 00:05:36;;;;;;;;;;;;;;;21.23;42.49;102321.19;7280378;19;152569;-52
2022/03/15 00:08:03;;;;;;;;;;;;;;;21.25;42.56;102316.16;7282562;19;154568;-52
2022/03/15 00:10:30;;;;;;;;;;;;;;;21.27;42.39;102317.53;7287277;19;151852;-53
2022/03/15 00:12:58;;;;;;;;;;;;;;;21.30;42.62;102311.34;7280626;19;154392;-53
2022/03/15 00:15:28;;;;;;;;;;;;;;;21.33;42.37;102309.97;7281809;19;151792;-53
2022/03/15 00:17:55;;;;;;;;;;;;;;;21.35;42.46;102304.88;7282693;19;152431;-53
2022/03/15 00:20:23;;;;;;;;;;;;;;;21.36;42.43;102306.59;7279963;19;153668;-53
2022/03/15 00:22:51;;;;;;;;;;;;;;;21.39;42.59;102303.22;7282415;19;151570;-53
2022/03/15 00:25:18;;;;;;;;;;;;;;;21.40;42.42;102312.47;7282305;19;156086;-53
2022/03/15 00:27:45;;;;;;;;;;;;;;;21.39;42.64;102303.22;7281513;19;153931;-54
2022/03/15 00:30:14;;;;;;;;;;;;;;;21.41;42.62;102320.66;7282003;19;151784;-53
2022/03/15 00:32:41;;;;;;;;;;;;;;;21.41;42.61;102312.22;7287683;19;154707;-54
2022/03/15 00:35:11;;;;;;;;;;;;;;;21.42;42.06;102310.25;7281879;19;152072;-53
2022/03/15 00:37:38;;;;;;;;;;;;;;;21.44;42.35;102313.63;7281467;19;151937;-52
2022/03/15 00:40:05;;;;;;;;;;;;;;;21.43;42.71;102309.97;7278279;19;153292;-53
2022/03/15 00:42:32;;;;;;;;;;;;;;;21.43;42.71;102311.94;7281362;19;151902;-52
2022/03/15 00:45:01;;;;;;;;;;;;;;;21.44;42.63;102310.81;7281919;19;153706;-52
2022/03/15 00:47:29;;;;;;;;;;;;;;;21.43;42.61;102312.78;7279892;19;154220;-52
2022/03/15 00:49:55;;;;;;;;;;;;;;;21.44;42.66;102313.63;7280166;19;151709;-53
2022/03/15 00:52:22;;;;;;;;;;;;;;;21.43;42.47;102301.53;7281080;19;152692;-52
2022/03/15 00:54:49;;;;;;;;;;;;;;;21.44;42.44;102302.38;7282313;19;151724;-53
2022/03/15 00:57:16;;;;;;;;;;;;;;;21.44;42.41;102299.56;7280046;19;153428;-52
2022/03/15 00:59:43;;;;;;;;;;;;;;;21.43;42.57;102303.50;7280435;19;152196;-53
2022/03/15 01:02:10;;;;;;;;;;;;;;;21.42;42.89;102313.91;7281411;19;151847;-53
2022/03/15 01:04:37;;;;;;;;;;;;;;;21.42;42.69;102313.91;7278723;19;153625;-53
2022/03/15 01:07:04;;;;;;;;;;;;;;;21.42;42.65;102307.44;7278707;19;153433;-53
2022/03/15 01:09:30;;;;;;;;;;;;;;;21.40;42.98;102306.84;7277715;19;151953;-52
2022/03/15 01:11:59;;;;;;;;;;;;;;;21.40;42.61;102309.66;7280479;19;152852;-53
2022/03/15 01:14:27;;;;;;;;;;;;;;;21.39;42.71;102308.84;7284873;19;152489;-53
2022/03/15 01:16:55;;;;;;;;;;;;;;;21.39;43.13;102305.19;7280445;19;153382;-53
2022/03/15 01:19:23;;;;;;;;;;;;;;;21.36;42.92;102302.91;7279333;19;153622;-53
2022/03/15 01:21:53;;;;;;;;;;;;;;;21.35;42.80;102287.19;7281181;19;151954;-53
2022/03/15 01:24:21;;;;;;;;;;;;;;;21.33;43.34;102281.84;7280155;19;153882;-53
2022/03/15 01:26:52;;;;;;;;;;;;;;;21.32;43.17;102279.31;7278682;19;153833;-52
2022/03/15 01:29:20;;;;;;;;;;;;;;;21.29;43.35;102277.91;7279222;19;151891;-52
2022/03/15 01:31:48;;;;;;;;;;;;;;;21.26;43.36;102275.66;7278463;19;155429;-53
2022/03/15 01:34:15;;;;;;;;;;;;;;;21.25;43.42;102268.38;7276958;19;153926;-52
2022/03/15 01:36:42;;;;;;;;;;;;;;;21.23;43.18;102267.78;7287147;19;152220;-53
2022/03/15 01:39:10;;;;;;;;;;;;;;;21.22;43.25;102266.94;7278887;19;153372;-53
2022/03/15 01:41:39;;;;;;;;;;;;;;;21.21;43.33;102261.63;7279953;19;151835;-53
2022/03/15 01:44:13;;;;;;;;;;;;;;;21.20;43.71;102260.78;7278926;19;154178;-52
2022/03/15 01:46:40;;;;;;;;;;;;;;;21.16;44.00;102259.66;7278921;19;153928;-54
2022/03/15 01:49:07;;;;;;;;;;;;;;;21.16;44.16;102261.63;7279942;19;151663;-53
2022/03/15 01:51:33;;;;;;;;;;;;;;;21.13;44.19;102248.94;7279393;19;152221;-53
2022/03/15 01:54:00;;;;;;;;;;;;;;;21.11;44.19;102244.72;7274025;19;153401;-54
2022/03/15 01:56:27;;;;;;;;;;;;;;;21.10;43.95;102241.06;7277885;19;151590;-52
2022/03/15 01:58:54;;;;;;;;;;;;;;;21.09;44.49;102235.72;7286358;19;154464;-53
2022/03/15 02:01:20;;;;;;;;;;;;;;;21.06;44.14;102236.28;7278129;19;151984;-52
2022/03/15 02:03:47;;;;;;;;;;;;;;;21.04;44.20;102227.28;7279888;19;153407;-53
2022/03/15 02:06:15;;;;;;;;;;;;;;;21.02;44.99;102223.91;7278669;19;154476;-53
2022/03/15 02:08:42;;;;;;;;;;;;;;;21.03;44.53;102215.19;7277661;19;151512;-53
2022/03/15 02:11:09;;;;;;;;;;;;;;;21.03;44.58;102212.38;7275655;19;152604;-53
2022/03/15 02:13:35;;;;;;;;;;;;;;;21.00;44.51;102215.75;7277268;19;154050;-52
2022/03/15 02:16:05;;;;;;;;;;;;;;;21.00;44.77;102217.72;7278292;19;151903;-52
2022/03/15 02:18:35;;;;;;;;;;;;;;;20.99;44.87;102207.59;7279447;19;153358;-53
2022/03/15 02:21:02;;;;;;;;;;;;;;;20.97;44.59;102205.09;7285048;19;155676;-52
2022/03/15 02:23:29;;;;;;;;;;;;;;;20.93;44.91;102205.94;7279178;19;152678;-53
2022/03/15 02:25:55;;;;;;;;;;;;;;;20.94;44.99;102199.19;7276816;19;153945;-53
2022/03/15 02:28:22;;;;;;;;;;;;;;;20.91;44.63;102202.56;7278925;19;152074;-53
2022/03/15 02:30:49;;;;;;;;;;;;;;;20.90;44.71;102198.03;7278419;19;153404;-53
2022/03/15 02:33:16;;;;;;;;;;;;;;;20.88;44.92;102189.94;7274548;19;154755;-53
2022/03/15 02:35:43;;;;;;;;;;;;;;;20.86;45.24;102190.19;7278461;19;151894;-53
2022/03/15 02:38:09;;;;;;;;;;;;;;;20.85;44.75;102194.13;7276254;19;153371;-53
2022/03/15 02:40:36;;;;;;;;;;;;;;;20.84;45.08;102184.03;7275961;19;154301;-52
2022/03/15 02:43:10;;;;;;;;;;;;;;;20.81;44.86;102178.94;7284275;19;151663;-53
2022/03/15 02:45:36;;;;;;;;;;;;;;;20.79;44.57;102180.38;7277458;19;153583;-53
2022/03/15 02:48:04;;;;;;;;;;;;;;;20.77;44.55;102177.81;7277633;19;151832;-52
2022/03/15 02:50:31;;;;;;;;;;;;;;;20.75;44.99;102170.81;7276479;19;152952;-52
2022/03/15 02:53:00;;;;;;;;;;;;;;;20.76;45.15;102175.28;7276824;19;153297;-53
2022/03/15 02:55:32;;;;;;;;;;;;;;;20.74;44.74;102169.13;7273887;19;152654;-53
2022/03/15 02:58:00;;;;;;;;;;;;;;;20.71;44.96;102166.88;7277361;19;152044;-52
2022/03/15 03:00:27;;;;;;;;;;;;;;;20.68;44.63;102164.63;7273977;19;153378;-52
2022/03/15 03:02:54;;;;;;;;;;;;;;;20.66;44.95;102162.09;7285454;19;151594;-52
2022/03/15 03:05:22;;;;;;;;;;;;;;;20.64;45.04;102166.31;7273834;19;154217;-53
2022/03/15 03:07:49;;;;;;;;;;;;;;;20.62;44.83;102158.19;7275315;19;151556;-53
2022/03/15 03:10:16;;;;;;;;;;;;;;;20.66;45.24;102148.06;7271809;19;154826;-53
2022/03/15 03:12:44;;;;;;;;;;;;;;;20.60;45.17;102151.13;7276925;19;154232;-53
2022/03/15 03:15:12;;;;;;;;;;;;;;;20.58;44.98;102142.16;7275571;19;151912;-52
2022/03/15 03:17:42;;;;;;;;;;;;;;;20.54;45.03;102133.44;7274101;19;153204;-53
2022/03/15 03:20:10;;;;;;;;;;;;;;;20.55;45.25;102140.75;7276933;19;153315;-54
2022/03/15 03:22:37;;;;;;;;;;;;;;;20.51;45.10;102130.34;7282902;19;151870;-52
2022/03/15 03:25:04;;;;;;;;;;;;;;;20.50;45.21;102126.69;7290121;19;153656;-52
2022/03/15 03:27:31;;;;;;;;;;;;;;;20.48;44.99;102123.34;7283123;19;151598;-53
2022/03/15 03:29:59;;;;;;;;;;;;;;;20.45;45.13;102123.88;7283904;19;152738;-52
2022/03/15 03:32:26;;;;;;;;;;;;;;;20.43;45.29;102123.34;7279268;19;153555;-53
2022/03/15 03:34:53;;;;;;;;;;;;;;;20.42;45.10;102119.69;7282274;19;151675;-53
2022/03/15 03:37:20;;;;;;;;;;;;;;;20.42;45.57;102121.66;7282985;19;153301;-53
2022/03/15 03:39:47;;;;;;;;;;;;;;;20.39;45.26;102114.66;7281916;19;153412;-53
2022/03/15 03:42:15;;;;;;;;;;;;;;;20.37;45.39;102118.84;7280766;19;152203;-54
2022/03/15 03:44:42;;;;;;;;;;;;;;;20.37;45.51;102118.84;7283993;19;152909;-53
2022/03/15 03:47:10;;;;;;;;;;;;;;;20.35;45.43;102119.09;7287197;19;154542;-53
2022/03/15 03:49:37;;;;;;;;;;;;;;;20.33;45.51;102109.28;7283838;19;153468;-54
2022/03/15 03:52:05;;;;;;;;;;;;;;;20.33;45.73;102107.31;7280325;19;153238;-53
2022/03/15 03:54:33;;;;;;;;;;;;;;;20.31;46.30;102103.94;7281948;19;151754;-53
2022/03/15 03:57:00;;;;;;;;;;;;;;;20.30;46.37;102107.91;7282307;19;153358;-52
2022/03/15 03:59:27;;;;;;;;;;;;;;;20.29;46.09;102105.31;7280104;19;153736;-51
2022/03/15 04:01:54;;;;;;;;;;;;;;;20.26;46.08;102106.72;7280368;19;151770;-52
2022/03/15 04:04:22;;;;;;;;;;;;;;;20.27;46.16;102099.13;7281716;19;153454;-53
2022/03/15 04:06:49;;;;;;;;;;;;;;;20.26;46.29;102105.88;7281281;19;154178;-53
2022/03/15 04:09:16;;;;;;;;;;;;;;;20.24;46.42;102102.50;7290376;19;151789;-53
2022/03/15 04:11:43;;;;;;;;;;;;;;;20.22;46.54;102101.94;7280610;19;154539;-54
2022/03/15 04:14:12;;;;;;;;;;;;;;;20.20;46.56;102096.63;7280578;19;151734;-53
2022/03/15 04:16:39;;;;;;;;;;;;;;;20.19;46.38;102097.72;7282320;19;153527;-53
2022/03/15 04:19:07;;;;;;;;;;;;;;;20.18;46.80;102095.19;7279245;19;153997;-53
2022/03/15 04:21:33;;;;;;;;;;;;;;;20.16;46.46;102089.03;7281588;19;151790;-52
2022/03/15 04:24:00;;;;;;;;;;;;;;;20.14;46.78;102080.88;7278888;19;155546;-52
2022/03/15 04:26:27;;;;;;;;;;;;;;;20.14;46.60;102083.69;7281597;19;154428;-53
2022/03/15 04:28:54;;;;;;;;;;;;;;;20.12;46.53;102082.28;7280125;19;153223;-53
2022/03/15 04:31:24;;;;;;;;;;;;;;;20.12;46.47;102094.38;7287630;19;153632;-53
2022/03/15 04:33:51;;;;;;;;;;;;;;;20.09;46.57;102080.88;7282169;19;151781;-52
2022/03/15 04:36:18;;;;;;;;;;;;;;;20.09;46.80;102080.88;7278979;19;152450;-53
2022/03/15 04:38:45;;;;;;;;;;;;;;;20.10;46.73;102085.38;7279695;19;154025;-53
2022/03/15 04:41:13;;;;;;;;;;;;;;;20.09;46.91;102077.22;7281605;19;151904;-53
2022/03/15 04:43:40;;;;;;;;;;;;;;;20.06;47.29;102080.59;7281841;19;152727;-53
2022/03/15 04:46:07;;;;;;;;;;;;;;;20.06;47.14;102077.78;7279324;19;153941;-52
2022/03/15 04:48:34;;;;;;;;;;;;;;;20.05;47.23;102073.28;7281247;19;151683;-53
2022/03/15 04:51:01;;;;;;;;;;;;;;;20.05;47.11;102062.91;7280062;19;152208;-54
2022/03/15 04:53:27;;;;;;;;;;;;;;;20.03;47.20;102069.94;7286408;19;155286;-53
2022/03/15 04:55:54;;;;;;;;;;;;;;;20.03;47.39;102065.16;7278514;19;154022;-53
2022/03/15 04:58:21;;;;;;;;;;;;;;;20.00;47.59;102057.28;7279571;19;154415;-52
2022/03/15 05:00:48;;;;;;;;;;;;;;;19.99;47.28;102059.25;7279988;19;152270;-53
2022/03/15 05:03:17;;;;;;;;;;;;;;;19.99;47.35;102059.25;7279135;19;152735;-52
2022/03/15 05:05:51;;;;;;;;;;;;;;;19.97;47.76;102052.25;7278902;19;154185;-53
2022/03/15 05:08:17;;;;;;;;;;;;;;;19.97;47.47;102058.69;7278552;19;151855;-53
2022/03/15 05:13:30;;;;;;;;;;;;;;;19.95;47.83;102063.72;7287393;19;153389;-52
2022/03/15 05:15:56;;;;;;;;;;;;;;;19.93;47.67;102060.38;7276576;19;152632;-52
2022/03/15 05:18:23;;;;;;;;;;;;;;;19.93;47.80;102054.78;7279609;19;153503;-52
2022/03/15 05:20:50;;;;;;;;;;;;;;;19.91;48.04;102047.72;7280256;19;151720;-53
2022/03/15 05:23:20;;;;;;;;;;;;;;;19.91;47.96;102044.94;7280795;19;152219;-53
2022/03/15 05:25:51;;;;;;;;;;;;;;;19.90;47.89;102046.88;7278698;19;153271;-53
2022/03/15 05:28:18;;;;;;;;;;;;;;;19.91;48.05;102050.53;7280642;19;151805;-53
2022/03/15 05:30:45;;;;;;;;;;;;;;;19.90;47.76;102051.66;7278969;19;153426;-52
2022/03/15 05:33:12;;;;;;;;;;;;;;;19.86;47.85;102051.38;7279054;19;153753;-52
2022/03/15 05:35:39;;;;;;;;;;;;;;;19.86;47.55;102056.97;7285109;19;151882;-53
2022/03/15 05:38:06;;;;;;;;;;;;;;;19.85;47.70;102048.88;7279114;19;153373;-52
2022/03/15 05:40:34;;;;;;;;;;;;;;;19.84;47.55;102050.81;7280120;19;151868;-52
2022/03/15 05:43:00;;;;;;;;;;;;;;;19.81;47.72;102051.34;7276623;19;152033;-53
2022/03/15 05:45:28;;;;;;;;;;;;;;;19.82;47.55;102055.00;7279006;19;153591;-53
2022/03/15 05:47:55;;;;;;;;;;;;;;;19.82;47.92;102049.41;7276783;19;151686;-52
2022/03/15 05:50:22;;;;;;;;;;;;;;;19.79;47.64;102045.19;7279742;19;153436;-52
2022/03/15 05:52:49;;;;;;;;;;;;;;;19.77;48.05;102041.81;7278342;19;155424;-53
2022/03/15 05:55:16;;;;;;;;;;;;;;;19.77;47.67;102044.63;7278375;19;152082;-52
2022/03/15 05:57:43;;;;;;;;;;;;;;;19.77;47.75;102049.38;7284940;19;153536;-52
2022/03/15 06:00:12;;;;;;;;;;;;;;;19.84;47.61;102052.78;7280482;19;151880;-52
2022/03/15 06:02:39;;;;;;;;;;;;;;;19.86;48.01;102058.94;7279988;19;153048;-52
2022/03/15 06:05:07;;;;;;;;;;;;;;;19.88;48.26;102053.91;7278052;19;153639;-53
2022/03/15 06:07:34;;;;;;;;;;;;;;;19.93;48.20;102060.38;7277182;19;151606;-53
2022/03/15 06:10:00;;;;;;;;;;;;;;;19.99;48.06;102066.81;7277839;19;152973;-53
2022/03/15 06:12:27;;;;;;;;;;;;;;;20.04;48.38;102066.81;7278093;19;153235;-53
2022/03/15 06:14:54;;;;;;;;;;;;;;;20.08;48.35;102061.53;7279093;19;152126;-53
2022/03/15 06:17:21;;;;;;;;;;;;;;;20.13;48.25;102065.16;7277092;19;151900;-53
2022/03/15 06:19:48;;;;;;;;;;;;;;;20.18;48.25;102067.13;7285090;19;152259;-53
2022/03/15 06:22:14;;;;;;;;;;;;;;;20.24;48.19;102068.84;7277276;19;152687;-53
2022/03/15 06:24:41;;;;;;;;;;;;;;;20.30;47.70;102073.38;7275520;19;154234;-53
2022/03/15 06:27:08;;;;;;;;;;;;;;;20.35;47.55;102071.38;7278595;19;151858;-53
2022/03/15 06:29:35;;;;;;;;;;;;;;;20.41;47.89;102066.63;7276130;19;151805;-52
2022/03/15 06:32:01;;;;;;;;;;;;;;;20.47;47.74;102073.09;7277615;19;154510;-52
2022/03/15 06:34:48;;;;;;;;;;;;;;;20.54;47.39;102077.28;7278152;19;151558;-53
2022/03/15 06:37:15;;;;;;;;;;;;;;;20.59;47.23;102080.09;7278447;19;152177;-53
2022/03/15 06:39:44;;;;;;;;;;;;;;;20.67;47.50;102085.13;7275843;19;154260;-53
2022/03/15 06:42:11;;;;;;;;;;;;;;;20.72;47.04;102076.72;7285807;19;152053;-54
2022/03/15 06:44:41;;;;;;;;;;;;;;;20.77;47.27;102082.31;7277365;19;154898;-53
2022/03/15 06:47:08;;;;;;;;;;;;;;;20.84;46.94;102080.09;7277844;19;151764;-53
2022/03/15 06:49:35;;;;;;;;;;;;;;;20.90;46.79;102077.25;7278021;19;153601;-53
2022/03/15 06:52:02;;;;;;;;;;;;;;;20.97;46.50;102086.25;7275365;19;153416;-52
2022/03/15 06:54:29;;;;;;;;;;;;;;;21.01;46.39;102074.16;7279559;19;151771;-53
2022/03/15 06:56:58;;;;;;;;;;;;;;;21.08;46.72;102074.69;7280817;19;152672;-53
2022/03/15 06:59:25;;;;;;;;;;;;;;;21.12;46.41;102061.75;7281314;19;151979;-52
2022/03/15 07:01:58;;;;;;;;;;;;;;;21.18;46.25;102073.84;7281824;19;152530;-52
2022/03/15 07:04:25;;;;;;;;;;;;;;;21.23;46.20;102076.66;7289136;19;153579;-52
2022/03/15 07:06:52;;;;;;;;;;;;;;;21.28;46.12;102073.81;7281895;19;152172;-52
2022/03/15 07:09:19;;;;;;;;;;;;;;;21.33;46.20;102059.75;7281089;19;153439;-54
2022/03/15 07:11:47;;;;;;;;;;;;;;;21.39;46.23;102060.59;7283285;19;153194;-52
2022/03/15 07:14:14;;;;;;;;;;;;;;;21.44;45.69;102067.00;7281669;19;152165;-52
2022/03/15 07:16:40;;;;;;;;;;;;;;;21.49;46.29;102066.13;7282593;19;155363;-52
2022/03/15 07:19:07;;;;;;;;;;;;;;;21.60;46.63;102073.41;7282095;19;154396;-53
2022/03/15 07:21:34;;;;;;;;;;;;;;;21.60;45.47;102068.63;7281951;19;151874;-54
2022/03/15 07:24:01;;;;;;;;;;;;;;;21.61;44.94;102064.69;7288134;19;152732;-53
2022/03/15 07:26:27;;;;;;;;;;;;;;;21.62;44.52;102065.53;7281063;19;152325;-53
2022/03/15 07:28:54;;;;;;;;;;;;;;;21.70;44.11;102059.31;7284365;19;153036;-53
2022/03/15 07:31:21;;;;;;;;;;;;;;;21.74;44.12;102060.41;7282090;19;154706;-53
2022/03/15 07:33:48;;;;;;;;;;;;;;;21.78;43.78;102067.13;7283389;19;152281;-53
2022/03/15 07:36:15;;;;;;;;;;;;;;;21.83;43.95;102063.44;7282309;19;152646;-53
2022/03/15 07:38:42;;;;;;;;;;;;;;;21.86;43.31;102060.03;7283346;19;153310;-53
2022/03/15 07:41:09;;;;;;;;;;;;;;;21.91;43.34;102062.84;7284025;19;152000;-53
2022/03/15 07:43:36;;;;;;;;;;;;;;;21.95;43.52;102056.38;7279564;19;154732;-53
2022/03/15 07:46:02;;;;;;;;;;;;;;;21.96;43.41;102055.25;7289922;19;153581;-53
2022/03/15 07:48:29;;;;;;;;;;;;;;;21.83;42.11;102038.13;7282910;19;153546;-53
2022/03/15 07:50:56;;;;;;;;;;;;;;;21.83;41.17;102050.22;7282425;19;155601;-54
2022/03/15 07:53:23;;;;;;;;;;;;;;;21.80;41.69;102042.38;7280155;19;152043;-53
2022/03/15 07:55:50;;;;;;;;;;;;;;;21.79;41.31;102037.88;7282391;19;152410;-54
2022/03/15 07:58:16;;;;;;;;;;;;;;;21.81;41.62;102031.94;7282926;19;153575;-53
2022/03/15 08:00:46;;;;;;;;;;;;;;;21.78;41.10;102033.38;7281275;19;152058;-53
2022/03/15 08:03:15;;;;;;;;;;;;;;;21.78;41.05;102035.34;7282128;19;153865;-53
2022/03/15 08:05:46;;;;;;;;;;;;;;;21.78;41.25;102029.72;7279254;19;152904;-52
2022/03/15 08:08:15;;;;;;;;;;;;;;;21.77;41.13;102033.66;7289897;19;151568;-53
2022/03/15 08:10:43;;;;;;;;;;;;;;;21.74;41.03;102030.31;7276915;19;153744;-52
2022/03/15 08:13:10;;;;;;;;;;;;;;;21.74;41.23;102027.50;7280106;19;151771;-53
2022/03/15 08:15:37;;;;;;;;;;;;;;;21.72;41.02;102028.91;7280446;19;153478;-53
2022/03/15 08:18:05;;;;;;;;;;;;;;;21.70;40.89;102026.41;7278918;19;153332;-53
2022/03/15 08:20:41;;;;;;;;;;;;;;;21.69;40.90;102023.88;7282249;19;151802;-53
2022/03/15 08:23:10;;;;;;;;;;;;;;;21.66;40.85;102025.31;7282418;19;152064;-53
2022/03/15 08:25:37;;;;;;;;;;;;;;;21.69;40.73;102026.69;7281085;19;153999;-53
2022/03/15 08:28:04;;;;;;;;;;;;;;;21.73;40.83;102023.00;7282904;19;152000;-54
2022/03/15 08:30:30;;;;;;;;;;;;;;;21.76;40.98;102032.00;7286961;19;152620;-53
2022/03/15 08:32:57;;;;;;;;;;;;;;;21.65;40.90;102028.41;7281816;19;152176;-53
2022/03/15 08:35:24;;;;;;;;;;;;;;;21.70;40.94;102019.94;7280904;19;152622;-53
2022/03/15 08:37:51;;;;;;;;;;;;;;;21.74;40.88;102027.50;7278090;19;153394;-53
2022/03/15 08:40:18;;;;;;;;;;;;;;;21.67;40.94;102029.78;7282151;19;151978;-54
2022/03/15 08:42:45;;;;;;;;;;;;;;;21.64;41.01;102029.50;7281489;19;153006;-53
2022/03/15 08:45:11;;;;;;;;;;;;;;;21.60;41.07;102037.69;7280194;19;153320;-53
2022/03/15 08:47:38;;;;;;;;;;;;;;;21.55;41.12;102028.44;7281225;19;151918;-53
2022/03/15 08:50:06;;;;;;;;;;;;;;;21.52;40.83;102026.22;7280786;19;152861;-53
2022/03/15 08:52:33;;;;;;;;;;;;;;;21.49;40.58;102019.19;7265494;19;155453;-53
2022/03/15 08:55:00;;;;;;;;;;;;;;;21.46;40.95;102011.34;7269816;19;152811;-53
2022/03/15 08:57:30;;;;;;;;;;;;;;;21.44;40.56;102007.94;7275116;19;153979;-53
2022/03/15 08:59:58;;;;;;;;;;;;;;;21.43;40.69;102005.47;7280124;19;152044;-53
2022/03/15 09:02:25;;;;;;;;;;;;;;;21.41;40.61;101994.47;7280791;19;154226;-53
2022/03/15 09:04:52;;;;;;;;;;;;;;;21.39;40.88;101984.66;7280162;19;154148;-53
2022/03/15 09:07:19;;;;;;;;;;;;;;;21.39;40.90;101965.84;7281433;19;151622;-54
2022/03/15 09:09:46;;;;;;;;;;;;;;;21.35;40.85;101955.47;7277029;19;152033;-53
2022/03/15 09:12:13;;;;;;;;;;;;;;;21.33;40.44;101949.28;7279132;19;153054;-54
2022/03/15 09:14:39;;;;;;;;;;;;;;;21.32;40.49;101950.41;7287899;19;151969;-53
2022/03/15 09:17:06;;;;;;;;;;;;;;;21.31;40.67;101946.75;7276558;19;155378;-53
2022/03/15 09:19:33;;;;;;;;;;;;;;;21.31;40.81;101943.94;7277774;19;151920;-53
2022/03/15 09:22:03;;;;;;;;;;;;;;;21.30;40.86;101940.28;7280371;19;152660;-54
2022/03/15 09:24:31;;;;;;;;;;;;;;;21.30;40.60;101936.66;7276712;19;153707;-53
2022/03/15 09:26:58;;;;;;;;;;;;;;;21.30;40.33;101933.84;7280685;19;151815;-54
2022/03/15 09:29:26;;;;;;;;;;;;;;;21.27;40.64;101938.06;7277540;19;154266;-54
2022/03/15 09:31:53;;;;;;;;;;;;;;;21.30;40.36;101922.59;7277369;19;156684;-54
2022/03/15 09:34:22;;;;;;;;;;;;;;;21.28;40.42;101931.31;7284646;19;151565;-54
2022/03/15 09:36:49;;;;;;;;;;;;;;;21.28;40.67;101922.03;7278452;19;154167;-53
2022/03/15 09:39:16;;;;;;;;;;;;;;;21.25;40.42;101931.06;7279603;19;151803;-54
2022/03/15 09:41:44;;;;;;;;;;;;;;;21.23;40.55;101927.69;7280139;19;154204;-54
2022/03/15 09:44:11;;;;;;;;;;;;;;;21.23;40.41;101933.31;7278198;19;153874;-53
2022/03/15 09:46:41;;;;;;;;;;;;;;;21.21;40.80;101935.56;7279699;19;151929;-54
2022/03/15 09:49:24;;;;;;;;;;;;;;;21.20;40.50;101939.50;7279603;19;152974;-53
2022/03/15 09:51:53;;;;;;;;;;;;;;;21.18;40.68;101947.38;7279221;19;153903;-53
2022/03/15 09:54:22;;;;;;;;;;;;;;;21.15;40.50;101939.53;7273289;19;151676;-54
2022/03/15 09:56:49;;;;;;;;;;;;;;;21.14;40.71;101937.84;7282811;19;153700;-54
2022/03/15 09:59:18;;;;;;;;;;;;;;;21.11;40.53;101938.41;7279557;19;151876;-54
2022/03/15 10:01:46;;;;;;;;;;;;;;;21.13;40.67;101941.78;7279525;19;153811;-53
2022/03/15 10:04:13;;;;;;;;;;;;;;;21.04;40.42;101935.03;7274953;19;153030;-54
2022/03/15 10:06:40;;;;;;;;;;;;;;;21.02;40.68;101940.97;7275090;19;151906;-54
2022/03/15 10:09:08;;;;;;;;;;;;;;;21.01;40.77;101935.63;7276777;19;151931;-54
2022/03/15 10:11:35;;;;;;;;;;;;;;;21.06;40.69;101938.41;7277266;19;153979;-54
2022/03/15 10:14:04;;;;;;;;;;;;;;;21.08;40.26;101934.19;7276887;19;151883;-54
2022/03/15 10:16:32;;;;;;;;;;;;;;;21.07;40.64;101931.69;7278522;19;153493;-53
2022/03/15 10:18:59;;;;;;;;;;;;;;;21.03;40.30;101930.56;7284449;19;154332;-54
2022/03/15 10:21:37;;;;;;;;;;;;;;;21.02;40.30;101923.25;7276597;19;153139;-54
2022/03/15 10:24:05;;;;;;;;;;;;;;;21.02;40.58;101928.88;7277239;19;153965;-54
2022/03/15 10:26:39;;;;;;;;;;;;;;;21.01;40.28;101924.38;7275495;19;151710;-54
2022/03/15 10:29:07;;;;;;;;;;;;;;;21.01;40.16;101924.38;7277565;19;152626;-54
2022/03/15 10:31:34;;;;;;;;;;;;;;;20.97;40.35;101929.75;7277668;19;155174;-53
2022/03/15 10:34:04;;;;;;;;;;;;;;;20.99;40.17;101924.66;7277459;19;151976;-53
2022/03/15 10:36:37;;;;;;;;;;;;;;;20.98;40.55;101923.00;7277055;19;153389;-53
2022/03/15 10:39:04;;;;;;;;;;;;;;;20.97;40.08;101926.94;7274562;19;153839;-54
2022/03/15 10:41:41;;;;;;;;;;;;;;;20.96;40.19;101915.97;7282454;19;152185;-54
2022/03/15 10:44:14;;;;;;;;;;;;;;;20.94;40.28;101927.50;7276584;19;153365;-54
2022/03/15 10:46:41;;;;;;;;;;;;;;;20.94;39.99;101919.06;7275067;19;151976;-53
2022/03/15 10:49:08;;;;;;;;;;;;;;;20.91;40.17;101911.22;7277305;19;153536;-54
2022/03/15 10:51:36;;;;;;;;;;;;;;;20.91;40.17;101896.34;7274490;19;153269;-54
2022/03/15 10:54:04;;;;;;;;;;;;;;;20.89;40.00;101885.41;7277798;19;151621;-54
2022/03/15 10:56:31;;;;;;;;;;;;;;;20.89;39.89;101885.41;7275835;19;151800;-54
2022/03/15 10:59:00;;;;;;;;;;;;;;;20.84;40.10;101886.28;7273540;19;152810;-54
2022/03/15 11:01:29;;;;;;;;;;;;;;;20.84;40.25;101891.03;7275678;19;151619;-53
2022/03/15 11:04:00;;;;;;;;;;;;;;;20.79;40.06;101896.69;7280908;19;153006;-53
2022/03/15 11:06:40;;;;;;;;;;;;;;;20.79;40.19;101891.91;7248509;19;152586;-53
2022/03/15 11:09:16;;;;;;;;;;;;;;;20.78;39.98;101884.59;7262903;19;154012;-53
2022/03/15 11:11:46;;;;;;;;;;;;;;;20.76;40.34;101891.63;7275819;19;153300;-53
2022/03/15 11:14:14;;;;;;;;;;;;;;;20.73;39.94;101895.84;7272950;19;151942;-54
2022/03/15 11:16:41;;;;;;;;;;;;;;;20.74;40.02;101894.72;7276367;19;152505;-54
2022/03/15 11:19:11;;;;;;;;;;;;;;;20.69;40.01;101883.50;7272436;19;153542;-54
2022/03/15 11:21:39;;;;;;;;;;;;;;;20.68;39.85;101881.81;7276202;19;152325;-53
2022/03/15 11:24:07;;;;;;;;;;;;;;;20.69;39.82;101882.66;7275218;19;152781;-53
2022/03/15 11:26:34;;;;;;;;;;;;;;;20.68;39.94;101881.81;7279841;19;151595;-53
2022/03/15 11:29:02;;;;;;;;;;;;;;;20.70;39.78;101879.59;7274576;19;153721;-53
2022/03/15 11:31:30;;;;;;;;;;;;;;;20.71;39.98;101874.81;7274674;19;154501;-53
2022/03/15 11:33:58;;;;;;;;;;;;;;;20.71;39.90;101874.81;7273545;19;151460;-54
2022/03/15 11:36:26;;;;;;;;;;;;;;;20.74;40.12;101874.22;7274270;19;152697;-53
2022/03/15 11:38:53;;;;;;;;;;;;;;;20.73;40.01;101869.72;7272320;19;153707;-53
2022/03/15 11:41:21;;;;;;;;;;;;;;;20.72;39.76;101874.50;7274294;19;152053;-54
2022/03/15 11:44:00;;;;;;;;;;;;;;;20.71;39.88;101867.22;7280302;19;152777;-54
2022/03/15 11:46:27;;;;;;;;;;;;;;;20.68;40.01;101869.75;7288625;19;152221;-53
2022/03/15 11:48:56;;;;;;;;;;;;;;;20.65;40.21;101871.19;7279525;19;153094;-55
2022/03/15 11:51:32;;;;;;;;;;;;;;;20.63;39.95;101862.19;7280873;19;153843;-54
2022/03/15 11:54:08;;;;;;;;;;;;;;;20.59;39.98;101861.06;7280053;19;151934;-53
2022/03/15 11:56:36;;;;;;;;;;;;;;;20.57;40.21;101849.31;7281965;19;152772;-53
2022/03/15 11:59:02;;;;;;;;;;;;;;;20.56;40.14;101846.78;7275873;19;152343;-53
2022/03/15 12:01:33;;;;;;;;;;;;;;;20.55;39.93;101839.47;7281387;19;151490;-54
2022/03/15 12:04:00;;;;;;;;;;;;;;;20.52;39.98;101837.25;7257755;19;154659;-53
2022/03/15 12:06:30;;;;;;;;;;;;;;;20.52;39.98;101832.47;7280305;19;152850;-54
2022/03/15 12:08:58;;;;;;;;;;;;;;;20.51;40.18;101828.00;7284163;19;152193;-54
2022/03/15 12:11:30;;;;;;;;;;;;;;;20.52;39.78;101826.03;7278116;19;153485;-54
2022/03/15 12:14:07;;;;;;;;;;;;;;;20.53;39.69;101822.94;7279598;19;152077;-53
2022/03/15 12:16:36;;;;;;;;;;;;;;;20.55;39.97;101823.47;7279120;19;151569;-54
2022/03/15 12:19:13;;;;;;;;;;;;;;;20.54;39.97;101823.75;7278276;19;155925;-54
2022/03/15 12:21:49;;;;;;;;;;;;;;;20.56;39.98;101824.31;7277652;19;152084;-54
2022/03/15 12:24:16;;;;;;;;;;;;;;;20.60;40.25;101822.63;7278966;19;153119;-53
2022/03/15 12:26:45;;;;;;;;;;;;;;;20.64;40.55;101823.72;7280090;19;153327;-54
2022/03/15 12:29:14;;;;;;;;;;;;;;;20.62;40.18;101818.41;7278495;19;151760;-53
2022/03/15 12:31:42;;;;;;;;;;;;;;;20.68;40.50;101819.19;7283917;19;152662;-53
2022/03/15 12:34:11;;;;;;;;;;;;;;;20.69;40.87;101816.13;7278388;19;151717;-54